sensor_id;sensor_type;location;lat;lon;timestamp;P1;durP1;ratioP1;P2;durP2;ratioP2
10900;SDS011;5503;53.208;10.392;2023-04-01T00:01:56;8.25;;;3.40;;
10900;SDS011;5503;53.208;10.392;2023-04-01T00:04:25;8.93;;;3.33;;
10900;SDS011;5503;53.208;10.392;2023-04-01T00:06:52;11.18;;;3.50;;
10900;SDS011;5503;53.208;10.392;2023-04-01T00:09:19;10.00;;;3.33;;
10900;SDS011;5503;53.208;10.392;2023-04-01T00:11:46;7.25;;;3.05;;
10900;SDS011;5503;53.208;10.392;2023-04-01T00:14:14;8.60;;;3.30;;
10900;SDS011;5503;53.208;10.392;2023-04-01T00:16:41;6.82;;;3.15;;
10900;SDS011;5503;53.208;10.392;2023-04-01T00:19:08;9.77;;;3.63;;
10900;SDS011;5503;53.208;10.392;2023-04-01T00:21:37;9.57;;;2.90;;
10900;SDS011;5503;53.208;10.392;2023-04-01T00:24:04;10.10;;;3.53;;
10900;SDS011;5503;53.208;10.392;2023-04-01T00:26:31;8.98;;;3.72;;
10900;SDS011;5503;53.208;10.392;2023-04-01T00:28:59;7.07;;;3.20;;
10900;SDS011;5503;53.208;10.392;2023-04-01T00:31:26;7.05;;;3.20;;
10900;SDS011;5503;53.208;10.392;2023-04-01T00:33:54;9.73;;;3.20;;
10900;SDS011;5503;53.208;10.392;2023-04-01T00:36:21;9.00;;;3.03;;
10900;SDS011;5503;53.208;10.392;2023-04-01T00:38:50;10.25;;;3.10;;
10900;SDS011;5503;53.208;10.392;2023-04-01T00:41:18;7.57;;;3.15;;
10900;SDS011;5503;53.208;10.392;2023-04-01T00:43:47;5.97;;;3.20;;
10900;SDS011;5503;53.208;10.392;2023-04-01T00:46:15;10.53;;;3.17;;
10900;SDS011;5503;53.208;10.392;2023-04-01T00:48:43;11.02;;;3.13;;
10900;SDS011;5503;53.208;10.392;2023-04-01T00:51:15;9.20;;;3.22;;
10900;SDS011;5503;53.208;10.392;2023-04-01T00:53:45;8.23;;;2.97;;
10900;SDS011;5503;53.208;10.392;2023-04-01T00:56:17;8.80;;;3.00;;
10900;SDS011;5503;53.208;10.392;2023-04-01T00:58:49;9.13;;;3.00;;
10900;SDS011;5503;53.208;10.392;2023-04-01T01:01:20;7.75;;;2.70;;
10900;SDS011;5503;53.208;10.392;2023-04-01T01:03:49;9.23;;;3.10;;
10900;SDS011;5503;53.208;10.392;2023-04-01T01:06:19;6.93;;;2.58;;
10900;SDS011;5503;53.208;10.392;2023-04-01T01:09:06;6.07;;;2.97;;
10900;SDS011;5503;53.208;10.392;2023-04-01T01:11:48;5.70;;;2.70;;
10900;SDS011;5503;53.208;10.392;2023-04-01T01:14:33;7.95;;;3.10;;
10900;SDS011;5503;53.208;10.392;2023-04-01T01:17:12;8.02;;;2.80;;
10900;SDS011;5503;53.208;10.392;2023-04-01T01:22:48;9.75;;;3.10;;
10900;SDS011;5503;53.208;10.392;2023-04-01T01:25:40;9.90;;;3.40;;
10900;SDS011;5503;53.208;10.392;2023-04-01T01:28:20;7.25;;;2.83;;
10900;SDS011;5503;53.208;10.392;2023-04-01T01:30:57;7.35;;;2.67;;
10900;SDS011;5503;53.208;10.392;2023-04-01T01:33:35;7.53;;;2.60;;
10900;SDS011;5503;53.208;10.392;2023-04-01T01:36:15;9.35;;;2.95;;
10900;SDS011;5503;53.208;10.392;2023-04-01T01:38:46;6.13;;;2.40;;
10900;SDS011;5503;53.208;10.392;2023-04-01T01:41:16;11.02;;;3.00;;
10900;SDS011;5503;53.208;10.392;2023-04-01T01:43:47;7.78;;;2.85;;
10900;SDS011;5503;53.208;10.392;2023-04-01T01:46:17;7.40;;;2.75;;
10900;SDS011;5503;53.208;10.392;2023-04-01T01:48:46;6.20;;;2.60;;
10900;SDS011;5503;53.208;10.392;2023-04-01T01:51:17;7.77;;;2.63;;
10900;SDS011;5503;53.208;10.392;2023-04-01T01:53:44;7.15;;;2.70;;
10900;SDS011;5503;53.208;10.392;2023-04-01T01:56:11;10.73;;;3.20;;
10900;SDS011;5503;53.208;10.392;2023-04-01T01:58:39;8.52;;;3.20;;
10900;SDS011;5503;53.208;10.392;2023-04-01T02:01:10;6.45;;;2.75;;
10900;SDS011;5503;53.208;10.392;2023-04-01T02:03:40;8.23;;;2.97;;
10900;SDS011;5503;53.208;10.392;2023-04-01T02:06:10;11.63;;;3.00;;
10900;SDS011;5503;53.208;10.392;2023-04-01T02:08:42;6.28;;;2.75;;
10900;SDS011;5503;53.208;10.392;2023-04-01T02:13:44;8.55;;;2.92;;
10900;SDS011;5503;53.208;10.392;2023-04-01T02:16:17;7.70;;;2.83;;
10900;SDS011;5503;53.208;10.392;2023-04-01T02:18:48;10.40;;;2.72;;
10900;SDS011;5503;53.208;10.392;2023-04-01T02:21:20;7.97;;;2.63;;
10900;SDS011;5503;53.208;10.392;2023-04-01T02:23:51;11.57;;;2.92;;
10900;SDS011;5503;53.208;10.392;2023-04-01T02:26:20;8.57;;;2.78;;
10900;SDS011;5503;53.208;10.392;2023-04-01T02:28:48;7.03;;;2.90;;
10900;SDS011;5503;53.208;10.392;2023-04-01T02:31:17;6.80;;;2.63;;
10900;SDS011;5503;53.208;10.392;2023-04-01T02:33:44;8.00;;;2.75;;
10900;SDS011;5503;53.208;10.392;2023-04-01T02:36:12;8.05;;;2.75;;
10900;SDS011;5503;53.208;10.392;2023-04-01T02:38:39;10.95;;;3.53;;
10900;SDS011;5503;53.208;10.392;2023-04-01T02:41:08;9.00;;;3.03;;
10900;SDS011;5503;53.208;10.392;2023-04-01T02:43:35;6.63;;;2.70;;
10900;SDS011;5503;53.208;10.392;2023-04-01T02:46:02;6.95;;;2.80;;
10900;SDS011;5503;53.208;10.392;2023-04-01T02:48:29;6.75;;;2.80;;
10900;SDS011;5503;53.208;10.392;2023-04-01T02:50:57;8.25;;;2.83;;
10900;SDS011;5503;53.208;10.392;2023-04-01T02:53:24;9.40;;;3.00;;
10900;SDS011;5503;53.208;10.392;2023-04-01T02:55:51;7.72;;;3.20;;
10900;SDS011;5503;53.208;10.392;2023-04-01T02:58:20;6.93;;;2.50;;
10900;SDS011;5503;53.208;10.392;2023-04-01T03:00:46;5.57;;;2.70;;
10900;SDS011;5503;53.208;10.392;2023-04-01T03:03:14;8.35;;;3.17;;
10900;SDS011;5503;53.208;10.392;2023-04-01T03:05:41;10.60;;;3.43;;
10900;SDS011;5503;53.208;10.392;2023-04-01T03:08:08;7.90;;;3.10;;
10900;SDS011;5503;53.208;10.392;2023-04-01T03:10:35;8.65;;;3.30;;
10900;SDS011;5503;53.208;10.392;2023-04-01T03:13:02;8.35;;;3.20;;
10900;SDS011;5503;53.208;10.392;2023-04-01T03:15:32;6.25;;;2.60;;
10900;SDS011;5503;53.208;10.392;2023-04-01T03:17:59;9.43;;;3.43;;
10900;SDS011;5503;53.208;10.392;2023-04-01T03:20:26;7.07;;;2.78;;
10900;SDS011;5503;53.208;10.392;2023-04-01T03:22:53;9.43;;;3.10;;
10900;SDS011;5503;53.208;10.392;2023-04-01T03:25:21;8.85;;;3.10;;
10900;SDS011;5503;53.208;10.392;2023-04-01T03:27:47;9.40;;;3.15;;
10900;SDS011;5503;53.208;10.392;2023-04-01T03:30:15;8.40;;;2.93;;
10900;SDS011;5503;53.208;10.392;2023-04-01T03:32:43;8.38;;;3.00;;
10900;SDS011;5503;53.208;10.392;2023-04-01T03:35:10;7.18;;;2.72;;
10900;SDS011;5503;53.208;10.392;2023-04-01T03:37:37;5.20;;;2.45;;
10900;SDS011;5503;53.208;10.392;2023-04-01T03:40:05;7.35;;;2.90;;
10900;SDS011;5503;53.208;10.392;2023-04-01T03:42:33;9.87;;;2.77;;
10900;SDS011;5503;53.208;10.392;2023-04-01T03:45:00;7.82;;;3.08;;
10900;SDS011;5503;53.208;10.392;2023-04-01T03:47:27;9.27;;;3.30;;
10900;SDS011;5503;53.208;10.392;2023-04-01T03:49:56;8.98;;;3.10;;
10900;SDS011;5503;53.208;10.392;2023-04-01T03:52:23;9.82;;;3.13;;
10900;SDS011;5503;53.208;10.392;2023-04-01T03:54:50;8.20;;;2.67;;
10900;SDS011;5503;53.208;10.392;2023-04-01T03:57:17;8.93;;;2.92;;
10900;SDS011;5503;53.208;10.392;2023-04-01T03:59:44;5.68;;;2.88;;
10900;SDS011;5503;53.208;10.392;2023-04-01T04:02:11;7.35;;;2.83;;
10900;SDS011;5503;53.208;10.392;2023-04-01T04:04:38;9.77;;;3.20;;
10900;SDS011;5503;53.208;10.392;2023-04-01T04:07:07;6.80;;;3.10;;
10900;SDS011;5503;53.208;10.392;2023-04-01T04:09:34;9.60;;;2.95;;
10900;SDS011;5503;53.208;10.392;2023-04-01T04:12:01;7.85;;;2.70;;
10900;SDS011;5503;53.208;10.392;2023-04-01T04:14:30;8.13;;;3.10;;
10900;SDS011;5503;53.208;10.392;2023-04-01T04:16:57;8.80;;;3.20;;
10900;SDS011;5503;53.208;10.392;2023-04-01T04:19:24;8.80;;;3.30;;
10900;SDS011;5503;53.208;10.392;2023-04-01T04:21:52;8.05;;;3.70;;
10900;SDS011;5503;53.208;10.392;2023-04-01T04:24:20;8.95;;;3.47;;
10900;SDS011;5503;53.208;10.392;2023-04-01T04:26:47;8.63;;;2.85;;
10900;SDS011;5503;53.208;10.392;2023-04-01T04:29:14;10.35;;;3.80;;
10900;SDS011;5503;53.208;10.392;2023-04-01T04:31:41;8.43;;;3.07;;
10900;SDS011;5503;53.208;10.392;2023-04-01T04:34:08;8.90;;;3.40;;
10900;SDS011;5503;53.208;10.392;2023-04-01T04:36:35;9.13;;;3.15;;
10900;SDS011;5503;53.208;10.392;2023-04-01T04:39:03;8.80;;;3.10;;
10900;SDS011;5503;53.208;10.392;2023-04-01T04:41:31;9.48;;;3.10;;
10900;SDS011;5503;53.208;10.392;2023-04-01T04:43:58;7.13;;;2.80;;
10900;SDS011;5503;53.208;10.392;2023-04-01T04:46:25;10.07;;;3.05;;
10900;SDS011;5503;53.208;10.392;2023-04-01T04:48:52;9.90;;;3.20;;
10900;SDS011;5503;53.208;10.392;2023-04-01T04:51:20;8.25;;;3.47;;
10900;SDS011;5503;53.208;10.392;2023-04-01T04:53:47;9.18;;;3.53;;
10900;SDS011;5503;53.208;10.392;2023-04-01T04:56:17;9.93;;;3.40;;
10900;SDS011;5503;53.208;10.392;2023-04-01T04:58:46;8.70;;;3.53;;
10900;SDS011;5503;53.208;10.392;2023-04-01T05:01:13;8.18;;;3.40;;
10900;SDS011;5503;53.208;10.392;2023-04-01T05:03:42;9.35;;;3.28;;
10900;SDS011;5503;53.208;10.392;2023-04-01T05:06:10;10.55;;;3.80;;
10900;SDS011;5503;53.208;10.392;2023-04-01T05:08:40;7.70;;;3.43;;
10900;SDS011;5503;53.208;10.392;2023-04-01T05:11:09;8.13;;;3.45;;
10900;SDS011;5503;53.208;10.392;2023-04-01T05:13:38;32.58;;;10.80;;
10900;SDS011;5503;53.208;10.392;2023-04-01T05:16:08;30.88;;;11.00;;
10900;SDS011;5503;53.208;10.392;2023-04-01T05:18:36;16.42;;;6.53;;
10900;SDS011;5503;53.208;10.392;2023-04-01T05:21:03;9.50;;;3.90;;
10900;SDS011;5503;53.208;10.392;2023-04-01T05:23:31;12.40;;;4.72;;
10900;SDS011;5503;53.208;10.392;2023-04-01T05:25:58;9.90;;;4.32;;
10900;SDS011;5503;53.208;10.392;2023-04-01T05:28:29;10.43;;;4.45;;
10900;SDS011;5503;53.208;10.392;2023-04-01T05:30:57;10.95;;;4.43;;
10900;SDS011;5503;53.208;10.392;2023-04-01T05:33:27;12.03;;;4.30;;
10900;SDS011;5503;53.208;10.392;2023-04-01T05:35:54;9.57;;;4.13;;
10900;SDS011;5503;53.208;10.392;2023-04-01T05:38:21;9.63;;;4.25;;
10900;SDS011;5503;53.208;10.392;2023-04-01T05:40:48;9.70;;;4.53;;
10900;SDS011;5503;53.208;10.392;2023-04-01T05:43:15;9.52;;;4.05;;
10900;SDS011;5503;53.208;10.392;2023-04-01T05:45:42;9.10;;;3.37;;
10900;SDS011;5503;53.208;10.392;2023-04-01T05:48:09;11.35;;;3.47;;
10900;SDS011;5503;53.208;10.392;2023-04-01T05:50:39;7.50;;;3.80;;
10900;SDS011;5503;53.208;10.392;2023-04-01T05:53:06;13.35;;;3.58;;
10900;SDS011;5503;53.208;10.392;2023-04-01T05:55:34;13.93;;;3.85;;
10900;SDS011;5503;53.208;10.392;2023-04-01T05:58:01;11.50;;;3.73;;
10900;SDS011;5503;53.208;10.392;2023-04-01T06:00:28;11.23;;;3.55;;
10900;SDS011;5503;53.208;10.392;2023-04-01T06:02:57;7.55;;;3.60;;
10900;SDS011;5503;53.208;10.392;2023-04-01T06:05:26;9.70;;;3.90;;
10900;SDS011;5503;53.208;10.392;2023-04-01T06:07:57;7.78;;;3.55;;
10900;SDS011;5503;53.208;10.392;2023-04-01T06:10:33;8.10;;;4.30;;
10900;SDS011;5503;53.208;10.392;2023-04-01T06:13:10;12.23;;;4.88;;
10900;SDS011;5503;53.208;10.392;2023-04-01T06:15:45;11.50;;;4.43;;
10900;SDS011;5503;53.208;10.392;2023-04-01T06:18:34;12.10;;;4.82;;
10900;SDS011;5503;53.208;10.392;2023-04-01T06:21:20;12.95;;;4.57;;
10900;SDS011;5503;53.208;10.392;2023-04-01T06:24:00;12.87;;;4.70;;
10900;SDS011;5503;53.208;10.392;2023-04-01T06:26:43;15.18;;;5.03;;
10900;SDS011;5503;53.208;10.392;2023-04-01T06:29:34;13.10;;;4.70;;
10900;SDS011;5503;53.208;10.392;2023-04-01T06:32:25;10.80;;;5.32;;
10900;SDS011;5503;53.208;10.392;2023-04-01T06:35:17;8.43;;;4.55;;
10900;SDS011;5503;53.208;10.392;2023-04-01T06:38:02;10.63;;;4.67;;
10900;SDS011;5503;53.208;10.392;2023-04-01T06:40:50;13.18;;;4.90;;
10900;SDS011;5503;53.208;10.392;2023-04-01T06:43:37;9.35;;;4.68;;
10900;SDS011;5503;53.208;10.392;2023-04-01T06:46:15;10.10;;;3.95;;
10900;SDS011;5503;53.208;10.392;2023-04-01T06:48:54;9.80;;;4.32;;
10900;SDS011;5503;53.208;10.392;2023-04-01T06:51:31;8.53;;;3.90;;
10900;SDS011;5503;53.208;10.392;2023-04-01T06:54:10;9.73;;;4.03;;
10900;SDS011;5503;53.208;10.392;2023-04-01T06:56:42;15.50;;;4.15;;
10900;SDS011;5503;53.208;10.392;2023-04-01T06:59:13;9.63;;;3.65;;
10900;SDS011;5503;53.208;10.392;2023-04-01T07:01:45;6.68;;;3.78;;
10900;SDS011;5503;53.208;10.392;2023-04-01T07:04:14;7.23;;;3.67;;
10900;SDS011;5503;53.208;10.392;2023-04-01T07:06:46;9.70;;;3.90;;
10900;SDS011;5503;53.208;10.392;2023-04-01T07:09:18;7.75;;;3.38;;
10900;SDS011;5503;53.208;10.392;2023-04-01T07:11:48;7.22;;;3.90;;
10900;SDS011;5503;53.208;10.392;2023-04-01T07:14:20;7.47;;;3.10;;
10900;SDS011;5503;53.208;10.392;2023-04-01T07:16:53;3.93;;;1.80;;
10900;SDS011;5503;53.208;10.392;2023-04-01T07:19:26;4.03;;;1.90;;
10900;SDS011;5503;53.208;10.392;2023-04-01T07:21:58;3.70;;;1.67;;
10900;SDS011;5503;53.208;10.392;2023-04-01T07:24:32;3.45;;;1.50;;
10900;SDS011;5503;53.208;10.392;2023-04-01T07:27:02;3.47;;;1.60;;
10900;SDS011;5503;53.208;10.392;2023-04-01T07:29:31;3.70;;;1.47;;
10900;SDS011;5503;53.208;10.392;2023-04-01T07:32:09;3.58;;;1.50;;
10900;SDS011;5503;53.208;10.392;2023-04-01T07:34:50;3.85;;;1.60;;
10900;SDS011;5503;53.208;10.392;2023-04-01T07:37:26;3.60;;;1.60;;
10900;SDS011;5503;53.208;10.392;2023-04-01T07:39:59;3.55;;;1.70;;
10900;SDS011;5503;53.208;10.392;2023-04-01T07:42:40;3.67;;;1.50;;
10900;SDS011;5503;53.208;10.392;2023-04-01T07:45:20;3.20;;;1.40;;
10900;SDS011;5503;53.208;10.392;2023-04-01T07:47:54;3.40;;;1.38;;
10900;SDS011;5503;53.208;10.392;2023-04-01T07:50:34;3.80;;;1.40;;
10900;SDS011;5503;53.208;10.392;2023-04-01T07:53:08;3.10;;;1.25;;
10900;SDS011;5503;53.208;10.392;2023-04-01T07:55:42;4.23;;;1.50;;
10900;SDS011;5503;53.208;10.392;2023-04-01T07:58:16;5.38;;;2.08;;
10900;SDS011;5503;53.208;10.392;2023-04-01T08:00:49;3.67;;;1.90;;
10900;SDS011;5503;53.208;10.392;2023-04-01T08:03:27;3.72;;;1.60;;
10900;SDS011;5503;53.208;10.392;2023-04-01T08:06:05;3.65;;;1.45;;
10900;SDS011;5503;53.208;10.392;2023-04-01T08:08:43;4.90;;;1.37;;
10900;SDS011;5503;53.208;10.392;2023-04-01T08:11:22;4.20;;;1.60;;
10900;SDS011;5503;53.208;10.392;2023-04-01T08:14:00;3.45;;;1.42;;
10900;SDS011;5503;53.208;10.392;2023-04-01T08:16:35;3.10;;;1.30;;
10900;SDS011;5503;53.208;10.392;2023-04-01T08:19:09;2.90;;;1.15;;
10900;SDS011;5503;53.208;10.392;2023-04-01T08:21:47;3.00;;;1.00;;
10900;SDS011;5503;53.208;10.392;2023-04-01T08:24:20;2.80;;;0.90;;
10900;SDS011;5503;53.208;10.392;2023-04-01T08:26:53;3.72;;;1.63;;
10900;SDS011;5503;53.208;10.392;2023-04-01T08:29:25;3.05;;;1.30;;
10900;SDS011;5503;53.208;10.392;2023-04-01T08:32:03;2.95;;;1.27;;
10900;SDS011;5503;53.208;10.392;2023-04-01T08:34:36;7.70;;;1.60;;
10900;SDS011;5503;53.208;10.392;2023-04-01T08:37:07;4.18;;;1.85;;
10900;SDS011;5503;53.208;10.392;2023-04-01T08:39:38;4.43;;;2.10;;
10900;SDS011;5503;53.208;10.392;2023-04-01T08:42:22;3.63;;;1.75;;
10900;SDS011;5503;53.208;10.392;2023-04-01T08:45:11;3.50;;;1.70;;
10900;SDS011;5503;53.208;10.392;2023-04-01T08:47:54;3.27;;;1.33;;
10900;SDS011;5503;53.208;10.392;2023-04-01T08:53:57;3.00;;;1.20;;
10900;SDS011;5503;53.208;10.392;2023-04-01T08:56:41;3.88;;;1.60;;
10900;SDS011;5503;53.208;10.392;2023-04-01T08:59:20;3.20;;;1.42;;
10900;SDS011;5503;53.208;10.392;2023-04-01T09:02:03;3.83;;;1.33;;
10900;SDS011;5503;53.208;10.392;2023-04-01T09:04:55;3.88;;;1.50;;
10900;SDS011;5503;53.208;10.392;2023-04-01T09:07:43;3.00;;;1.40;;
10900;SDS011;5503;53.208;10.392;2023-04-01T09:10:24;2.70;;;0.98;;
10900;SDS011;5503;53.208;10.392;2023-04-01T09:13:12;3.28;;;1.40;;
10900;SDS011;5503;53.208;10.392;2023-04-01T09:16:17;3.30;;;1.50;;
10900;SDS011;5503;53.208;10.392;2023-04-01T09:19:12;2.90;;;1.20;;
10900;SDS011;5503;53.208;10.392;2023-04-01T09:28:01;2.92;;;1.10;;
10900;SDS011;5503;53.208;10.392;2023-04-01T09:30:39;2.90;;;1.10;;
10900;SDS011;5503;53.208;10.392;2023-04-01T09:36:45;4.25;;;1.60;;
10900;SDS011;5503;53.208;10.392;2023-04-01T09:39:23;5.25;;;1.70;;
10900;SDS011;5503;53.208;10.392;2023-04-01T09:42:15;3.90;;;1.50;;
10900;SDS011;5503;53.208;10.392;2023-04-01T09:44:58;3.10;;;1.30;;
10900;SDS011;5503;53.208;10.392;2023-04-01T09:47:31;3.38;;;1.08;;
10900;SDS011;5503;53.208;10.392;2023-04-01T09:50:15;3.90;;;1.40;;
10900;SDS011;5503;53.208;10.392;2023-04-01T09:52:56;4.57;;;1.40;;
10900;SDS011;5503;53.208;10.392;2023-04-01T09:55:39;3.10;;;1.20;;
10900;SDS011;5503;53.208;10.392;2023-04-01T10:01:45;3.85;;;1.23;;
10900;SDS011;5503;53.208;10.392;2023-04-01T10:07:54;3.28;;;1.50;;
10900;SDS011;5503;53.208;10.392;2023-04-01T10:13:57;4.00;;;1.70;;
10900;SDS011;5503;53.208;10.392;2023-04-01T10:16:53;2.92;;;0.93;;
10900;SDS011;5503;53.208;10.392;2023-04-01T10:22:42;3.20;;;1.30;;
10900;SDS011;5503;53.208;10.392;2023-04-01T10:25:36;3.50;;;1.55;;
10900;SDS011;5503;53.208;10.392;2023-04-01T10:34:39;3.28;;;1.50;;
10900;SDS011;5503;53.208;10.392;2023-04-01T10:40:37;3.47;;;1.60;;
10900;SDS011;5503;53.208;10.392;2023-04-01T10:43:33;3.43;;;1.30;;
10900;SDS011;5503;53.208;10.392;2023-04-01T10:46:21;3.40;;;1.50;;
10900;SDS011;5503;53.208;10.392;2023-04-01T10:58:30;5.63;;;2.57;;
10900;SDS011;5503;53.208;10.392;2023-04-01T11:14:13;2.90;;;0.97;;
10900;SDS011;5503;53.208;10.392;2023-04-01T11:26:29;3.10;;;1.40;;
10900;SDS011;5503;53.208;10.392;2023-04-01T11:29:22;3.90;;;1.53;;
10900;SDS011;5503;53.208;10.392;2023-04-01T11:32:12;2.90;;;1.20;;
10900;SDS011;5503;53.208;10.392;2023-04-01T11:34:55;3.20;;;1.40;;
10900;SDS011;5503;53.208;10.392;2023-04-01T11:37:35;3.20;;;1.45;;
10900;SDS011;5503;53.208;10.392;2023-04-01T11:40:11;3.58;;;1.70;;
10900;SDS011;5503;53.208;10.392;2023-04-01T11:42:49;2.70;;;1.00;;
10900;SDS011;5503;53.208;10.392;2023-04-01T11:45:25;4.15;;;1.40;;
10900;SDS011;5503;53.208;10.392;2023-04-01T11:51:04;3.05;;;1.40;;
10900;SDS011;5503;53.208;10.392;2023-04-01T11:53:44;3.13;;;1.45;;
10900;SDS011;5503;53.208;10.392;2023-04-01T11:56:22;4.43;;;1.70;;
10900;SDS011;5503;53.208;10.392;2023-04-01T11:59:13;5.63;;;1.67;;
10900;SDS011;5503;53.208;10.392;2023-04-01T12:02:07;5.63;;;1.48;;
10900;SDS011;5503;53.208;10.392;2023-04-01T12:10:40;4.00;;;1.60;;
10900;SDS011;5503;53.208;10.392;2023-04-01T12:13:16;3.92;;;1.63;;
10900;SDS011;5503;53.208;10.392;2023-04-01T12:15:59;3.20;;;1.42;;
10900;SDS011;5503;53.208;10.392;2023-04-01T12:18:42;4.10;;;2.03;;
10900;SDS011;5503;53.208;10.392;2023-04-01T12:21:17;3.72;;;1.60;;
10900;SDS011;5503;53.208;10.392;2023-04-01T12:26:52;8.20;;;1.23;;
10900;SDS011;5503;53.208;10.392;2023-04-01T12:29:37;3.40;;;1.50;;
10900;SDS011;5503;53.208;10.392;2023-04-01T12:32:20;3.42;;;1.50;;
10900;SDS011;5503;53.208;10.392;2023-04-01T12:34:59;3.20;;;1.40;;
10900;SDS011;5503;53.208;10.392;2023-04-01T12:37:39;3.60;;;1.57;;
10900;SDS011;5503;53.208;10.392;2023-04-01T12:40:17;3.50;;;1.50;;
10900;SDS011;5503;53.208;10.392;2023-04-01T12:43:02;3.78;;;1.77;;
10900;SDS011;5503;53.208;10.392;2023-04-01T12:45:42;5.00;;;1.73;;
10900;SDS011;5503;53.208;10.392;2023-04-01T12:57:09;4.05;;;1.80;;
10900;SDS011;5503;53.208;10.392;2023-04-01T13:00:03;6.57;;;1.58;;
10900;SDS011;5503;53.208;10.392;2023-04-01T13:02:49;4.30;;;1.80;;
10900;SDS011;5503;53.208;10.392;2023-04-01T13:05:38;4.33;;;1.53;;
10900;SDS011;5503;53.208;10.392;2023-04-01T13:08:32;3.75;;;1.80;;
10900;SDS011;5503;53.208;10.392;2023-04-01T13:11:13;4.03;;;1.90;;
10900;SDS011;5503;53.208;10.392;2023-04-01T13:16:46;4.80;;;2.10;;
10900;SDS011;5503;53.208;10.392;2023-04-01T13:19:21;4.30;;;2.20;;
10900;SDS011;5503;53.208;10.392;2023-04-01T13:21:55;6.95;;;2.00;;
10900;SDS011;5503;53.208;10.392;2023-04-01T13:24:31;4.47;;;2.08;;
10900;SDS011;5503;53.208;10.392;2023-04-01T13:27:11;5.18;;;2.25;;
10900;SDS011;5503;53.208;10.392;2023-04-01T13:29:44;5.22;;;2.25;;
10900;SDS011;5503;53.208;10.392;2023-04-01T13:32:20;3.83;;;1.97;;
10900;SDS011;5503;53.208;10.392;2023-04-01T13:38:04;6.15;;;2.58;;
10900;SDS011;5503;53.208;10.392;2023-04-01T13:40:51;3.47;;;1.63;;
10900;SDS011;5503;53.208;10.392;2023-04-01T13:43:27;3.30;;;1.42;;
10900;SDS011;5503;53.208;10.392;2023-04-01T13:46:09;3.87;;;1.77;;
10900;SDS011;5503;53.208;10.392;2023-04-01T13:48:56;9.45;;;2.83;;
10900;SDS011;5503;53.208;10.392;2023-04-01T13:51:52;6.35;;;3.40;;
10900;SDS011;5503;53.208;10.392;2023-04-01T13:54:48;5.43;;;2.58;;
10900;SDS011;5503;53.208;10.392;2023-04-01T13:57:43;5.75;;;2.55;;
10900;SDS011;5503;53.208;10.392;2023-04-01T14:00:27;5.57;;;2.70;;
10900;SDS011;5503;53.208;10.392;2023-04-01T14:03:14;4.72;;;2.30;;
10900;SDS011;5503;53.208;10.392;2023-04-01T14:06:02;7.15;;;2.60;;
10900;SDS011;5503;53.208;10.392;2023-04-01T14:08:40;4.90;;;2.55;;
10900;SDS011;5503;53.208;10.392;2023-04-01T14:11:19;4.60;;;2.45;;
10900;SDS011;5503;53.208;10.392;2023-04-01T14:13:56;5.50;;;2.43;;
10900;SDS011;5503;53.208;10.392;2023-04-01T14:16:47;5.95;;;3.08;;
10900;SDS011;5503;53.208;10.392;2023-04-01T14:19:40;4.78;;;2.50;;
10900;SDS011;5503;53.208;10.392;2023-04-01T14:22:28;4.38;;;2.42;;
10900;SDS011;5503;53.208;10.392;2023-04-01T14:25:14;4.68;;;2.72;;
10900;SDS011;5503;53.208;10.392;2023-04-01T14:27:55;6.50;;;3.40;;
10900;SDS011;5503;53.208;10.392;2023-04-01T14:30:42;8.55;;;5.00;;
10900;SDS011;5503;53.208;10.392;2023-04-01T14:33:26;6.03;;;3.13;;
10900;SDS011;5503;53.208;10.392;2023-04-01T14:36:21;4.43;;;2.13;;
10900;SDS011;5503;53.208;10.392;2023-04-01T14:39:00;6.22;;;2.80;;
10900;SDS011;5503;53.208;10.392;2023-04-01T14:41:48;4.57;;;2.60;;
10900;SDS011;5503;53.208;10.392;2023-04-01T14:44:36;7.38;;;3.58;;
10900;SDS011;5503;53.208;10.392;2023-04-01T14:50:14;4.32;;;2.13;;
10900;SDS011;5503;53.208;10.392;2023-04-01T14:52:44;5.10;;;2.42;;
10900;SDS011;5503;53.208;10.392;2023-04-01T14:55:19;7.00;;;3.60;;
10900;SDS011;5503;53.208;10.392;2023-04-01T15:00:41;5.75;;;3.13;;
10900;SDS011;5503;53.208;10.392;2023-04-01T15:03:16;5.70;;;2.35;;
10900;SDS011;5503;53.208;10.392;2023-04-01T15:05:49;10.88;;;4.05;;
10900;SDS011;5503;53.208;10.392;2023-04-01T15:08:20;6.00;;;3.33;;
10900;SDS011;5503;53.208;10.392;2023-04-01T15:10:52;7.70;;;3.55;;
10900;SDS011;5503;53.208;10.392;2023-04-01T15:13:35;6.00;;;2.80;;
10900;SDS011;5503;53.208;10.392;2023-04-01T15:16:19;6.50;;;3.47;;
10900;SDS011;5503;53.208;10.392;2023-04-01T15:18:53;8.15;;;2.92;;
10900;SDS011;5503;53.208;10.392;2023-04-01T15:24:29;8.25;;;3.38;;
10900;SDS011;5503;53.208;10.392;2023-04-01T15:27:12;7.32;;;3.25;;
10900;SDS011;5503;53.208;10.392;2023-04-01T15:30:01;5.03;;;2.15;;
10900;SDS011;5503;53.208;10.392;2023-04-01T15:32:49;8.60;;;3.60;;
10900;SDS011;5503;53.208;10.392;2023-04-01T15:35:33;7.67;;;3.90;;
10900;SDS011;5503;53.208;10.392;2023-04-01T15:38:14;7.72;;;4.03;;
10900;SDS011;5503;53.208;10.392;2023-04-01T15:40:53;9.43;;;5.15;;
10900;SDS011;5503;53.208;10.392;2023-04-01T15:43:31;11.10;;;4.88;;
10900;SDS011;5503;53.208;10.392;2023-04-01T15:49:09;9.43;;;3.80;;
10900;SDS011;5503;53.208;10.392;2023-04-01T15:52:02;5.82;;;2.90;;
10900;SDS011;5503;53.208;10.392;2023-04-01T15:57:43;8.95;;;3.88;;
10900;SDS011;5503;53.208;10.392;2023-04-01T16:00:23;10.73;;;3.75;;
10900;SDS011;5503;53.208;10.392;2023-04-01T16:05:42;9.02;;;4.15;;
10900;SDS011;5503;53.208;10.392;2023-04-01T16:08:25;7.45;;;3.75;;
10900;SDS011;5503;53.208;10.392;2023-04-01T16:11:18;7.53;;;3.33;;
10900;SDS011;5503;53.208;10.392;2023-04-01T16:13:58;8.57;;;3.72;;
10900;SDS011;5503;53.208;10.392;2023-04-01T16:16:38;9.03;;;4.10;;
10900;SDS011;5503;53.208;10.392;2023-04-01T16:19:20;8.43;;;3.40;;
10900;SDS011;5503;53.208;10.392;2023-04-01T16:22:08;10.13;;;4.05;;
10900;SDS011;5503;53.208;10.392;2023-04-01T16:24:39;9.10;;;3.60;;
10900;SDS011;5503;53.208;10.392;2023-04-01T16:27:12;9.25;;;4.03;;
10900;SDS011;5503;53.208;10.392;2023-04-01T16:29:46;9.27;;;4.37;;
10900;SDS011;5503;53.208;10.392;2023-04-01T16:32:17;8.32;;;3.83;;
10900;SDS011;5503;53.208;10.392;2023-04-01T16:34:55;8.07;;;4.25;;
10900;SDS011;5503;53.208;10.392;2023-04-01T16:37:31;10.05;;;4.63;;
10900;SDS011;5503;53.208;10.392;2023-04-01T16:40:09;10.98;;;4.13;;
10900;SDS011;5503;53.208;10.392;2023-04-01T16:42:43;10.60;;;4.83;;
10900;SDS011;5503;53.208;10.392;2023-04-01T16:45:19;10.95;;;4.70;;
10900;SDS011;5503;53.208;10.392;2023-04-01T16:47:53;11.73;;;4.10;;
10900;SDS011;5503;53.208;10.392;2023-04-01T16:50:23;9.43;;;4.50;;
10900;SDS011;5503;53.208;10.392;2023-04-01T16:52:54;10.00;;;4.88;;
10900;SDS011;5503;53.208;10.392;2023-04-01T16:55:41;10.77;;;4.90;;
10900;SDS011;5503;53.208;10.392;2023-04-01T16:58:14;10.98;;;5.70;;
10900;SDS011;5503;53.208;10.392;2023-04-01T17:00:49;9.73;;;4.57;;
10900;SDS011;5503;53.208;10.392;2023-04-01T17:03:20;9.65;;;4.65;;
10900;SDS011;5503;53.208;10.392;2023-04-01T17:05:59;10.02;;;4.63;;
10900;SDS011;5503;53.208;10.392;2023-04-01T17:08:47;8.90;;;3.30;;
10900;SDS011;5503;53.208;10.392;2023-04-01T17:11:24;12.25;;;4.28;;
10900;SDS011;5503;53.208;10.392;2023-04-01T17:13:58;8.77;;;4.50;;
10900;SDS011;5503;53.208;10.392;2023-04-01T17:16:43;10.90;;;3.67;;
10900;SDS011;5503;53.208;10.392;2023-04-01T17:19:32;6.18;;;3.70;;
10900;SDS011;5503;53.208;10.392;2023-04-01T17:22:22;7.00;;;3.70;;
10900;SDS011;5503;53.208;10.392;2023-04-01T17:27:55;6.72;;;3.65;;
10900;SDS011;5503;53.208;10.392;2023-04-01T17:30:31;5.90;;;3.13;;
10900;SDS011;5503;53.208;10.392;2023-04-01T17:35:58;9.73;;;4.70;;
10900;SDS011;5503;53.208;10.392;2023-04-01T17:38:38;10.30;;;4.05;;
10900;SDS011;5503;53.208;10.392;2023-04-01T17:41:15;14.52;;;3.42;;